createdAt,value
2023-01-21T00:00:03.074Z,123.6
2023-01-21T00:15:02.172Z,123.81
2023-01-21T00:30:01.965Z,123.72
2023-01-21T00:45:02.264Z,124.49
2023-01-21T01:00:01.491Z,124.41
2023-01-21T01:15:02.248Z,124.41
2023-01-21T01:30:02.040Z,123.93
2023-01-21T01:45:02.208Z,124.25
2023-01-21T02:00:01.705Z,124.53
2023-01-21T02:15:02.307Z,123.68
2023-01-21T02:30:03.253Z,123.93
2023-01-21T02:45:02.295Z,123.93
2023-01-21T03:00:01.958Z,123.85
2023-01-21T03:15:02.320Z,123.77
2023-01-21T03:30:02.145Z,123.93
2023-01-21T03:45:01.362Z,123.68
2023-01-21T04:00:01.649Z,123.93
2023-01-21T04:15:05.134Z,123.85
2023-01-21T04:30:02.237Z,123.44
2023-01-21T04:45:02.334Z,123.85
2023-01-21T05:00:01.380Z,123.56
2023-01-21T05:15:02.295Z,123.28
2023-01-21T05:30:02.166Z,123.52
2023-01-21T05:45:02.274Z,123.68
2023-01-21T06:00:01.689Z,123.72
2023-01-21T06:15:02.266Z,123.68
2023-01-21T06:30:01.857Z,124.1
2023-01-21T06:45:02.341Z,124.45
2023-01-21T07:00:01.364Z,124.57
2023-01-21T07:15:02.220Z,125.14
2023-01-21T07:30:02.076Z,124.53
2023-01-21T07:45:02.324Z,123.93
2023-01-21T08:00:01.599Z,123.12
2023-01-21T08:15:02.226Z,122.23
2023-01-21T08:30:01.715Z,121.46
2023-01-21T08:45:02.269Z,118.99
2023-01-21T09:00:02.204Z,115.95
2023-01-21T09:15:02.201Z,114.54
2023-01-21T09:30:02.057Z,113.24
2023-01-21T09:45:02.281Z,113.73
2023-01-21T10:00:01.582Z,114.25
2023-01-21T10:15:02.265Z,112.88
2023-01-21T10:30:01.638Z,111.34
2023-01-21T10:45:02.329Z,110
2023-01-21T11:00:02.135Z,109.2
2023-01-21T11:15:02.221Z,111.87
2023-01-21T11:30:01.360Z,111.62
2023-01-21T11:45:02.277Z,111.18
2023-01-21T12:00:01.896Z,111.22
2023-01-21T12:15:02.238Z,111.1
2023-01-21T12:30:02.404Z,111.22
2023-01-21T12:45:02.313Z,111.2
2023-01-21T13:00:01.462Z,111.5
2023-01-21T13:15:02.290Z,111.22
2023-01-21T13:30:02.244Z,110.17
2023-01-21T13:45:02.149Z,111.38
2023-01-21T14:00:01.707Z,112.51
2023-01-21T14:15:02.200Z,112.59
2023-01-21T14:30:03.158Z,113.53
2023-01-21T14:45:02.224Z,114.25
2023-01-21T15:00:01.703Z,115.75
2023-01-21T15:15:02.207Z,116.48
2023-01-21T15:30:02.149Z,118.6
2023-01-21T15:45:02.276Z,118.46
2023-01-21T16:00:01.705Z,118.14
2023-01-21T16:15:02.333Z,118.18
2023-01-21T16:30:01.769Z,118.67
2023-01-21T16:45:02.311Z,119.27
2023-01-21T17:00:02.657Z,119.64
2023-01-21T17:15:02.267Z,119.72
2023-01-21T17:30:01.664Z,120.45
2023-01-21T17:45:02.275Z,120.77
2023-01-21T18:00:02.559Z,121.46
2023-01-21T18:15:01.549Z,121.46
2023-01-21T18:30:02.383Z,121.34
2023-01-21T18:45:02.058Z,121.7
2023-01-21T19:00:02.322Z,122.2
2023-01-21T19:15:01.454Z,122.71
2023-01-21T19:30:02.282Z,122.83
2023-01-21T19:45:01.955Z,123.4
2023-01-21T20:00:02.335Z,124.1
2023-01-21T20:15:01.698Z,124.49
2023-01-21T20:30:15.528Z,123.93
2023-01-21T20:45:02.266Z,123.64
2023-01-21T21:00:02.286Z,123.24
2023-01-21T21:15:01.773Z,122.71
2023-01-21T21:30:02.226Z,122.92
2023-01-21T21:45:01.315Z,123.2
2023-01-21T22:00:02.292Z,122.63
2023-01-21T22:15:02.109Z,122.47
2023-01-21T22:30:02.248Z,122.39
2023-01-21T22:45:01.717Z,122.55
2023-01-21T23:00:02.643Z,122.15
2023-01-21T23:15:01.413Z,121.7
2023-01-21T23:30:02.283Z,121.9
2023-01-21T23:45:01.906Z,121.74
